sensor_id;sensor_type;location;lat;lon;timestamp;P1;durP1;ratioP1;P2;durP2;ratioP2
31754;SDS011;18325;52.018;4.726;2022-12-07T00:01:30;1.23;;;0.97;;
31754;SDS011;18325;52.018;4.726;2022-12-07T00:03:59;5.30;;;1.10;;
31754;SDS011;18325;52.018;4.726;2022-12-07T00:06:29;2.47;;;0.80;;
31754;SDS011;18325;52.018;4.726;2022-12-07T00:08:57;2.90;;;0.77;;
31754;SDS011;18325;52.018;4.726;2022-12-07T00:11:47;1.50;;;0.83;;
31754;SDS011;18325;52.018;4.726;2022-12-07T00:14:41;3.27;;;0.77;;
31754;SDS011;18325;52.018;4.726;2022-12-07T00:17:30;0.70;;;0.63;;
31754;SDS011;18325;52.018;4.726;2022-12-07T00:19:57;3.17;;;0.67;;
31754;SDS011;18325;52.018;4.726;2022-12-07T00:22:23;1.33;;;0.87;;
31754;SDS011;18325;52.018;4.726;2022-12-07T00:24:50;2.33;;;0.53;;
31754;SDS011;18325;52.018;4.726;2022-12-07T00:27:17;2.93;;;0.80;;
31754;SDS011;18325;52.018;4.726;2022-12-07T00:29:44;0.93;;;0.70;;
31754;SDS011;18325;52.018;4.726;2022-12-07T00:32:10;2.93;;;0.80;;
31754;SDS011;18325;52.018;4.726;2022-12-07T00:34:39;2.20;;;0.50;;
31754;SDS011;18325;52.018;4.726;2022-12-07T00:37:06;2.83;;;0.47;;
31754;SDS011;18325;52.018;4.726;2022-12-07T00:39:32;4.83;;;1.10;;
31754;SDS011;18325;52.018;4.726;2022-12-07T00:55:28;3.23;;;1.13;;
31754;SDS011;18325;52.018;4.726;2022-12-07T00:57:54;1.37;;;0.90;;
31754;SDS011;18325;52.018;4.726;2022-12-07T01:03:56;3.50;;;1.43;;
31754;SDS011;18325;52.018;4.726;2022-12-07T01:06:23;2.50;;;0.90;;
31754;SDS011;18325;52.018;4.726;2022-12-07T01:08:50;5.83;;;0.80;;
31754;SDS011;18325;52.018;4.726;2022-12-07T01:11:19;1.40;;;0.60;;
31754;SDS011;18325;52.018;4.726;2022-12-07T01:13:46;6.53;;;1.00;;
31754;SDS011;18325;52.018;4.726;2022-12-07T01:16:17;0.40;;;0.40;;
31754;SDS011;18325;52.018;4.726;2022-12-07T01:18:45;1.60;;;0.43;;
31754;SDS011;18325;52.018;4.726;2022-12-07T01:21:13;2.37;;;0.90;;
31754;SDS011;18325;52.018;4.726;2022-12-07T01:23:41;2.50;;;0.73;;
31754;SDS011;18325;52.018;4.726;2022-12-07T01:26:09;1.90;;;0.80;;
31754;SDS011;18325;52.018;4.726;2022-12-07T01:28:58;1.03;;;0.50;;
31754;SDS011;18325;52.018;4.726;2022-12-07T01:31:26;0.93;;;0.50;;
31754;SDS011;18325;52.018;4.726;2022-12-07T01:33:55;1.93;;;0.77;;
31754;SDS011;18325;52.018;4.726;2022-12-07T01:36:24;2.43;;;0.93;;
31754;SDS011;18325;52.018;4.726;2022-12-07T01:38:53;4.23;;;1.17;;
31754;SDS011;18325;52.018;4.726;2022-12-07T01:41:21;0.17;;;0.17;;
31754;SDS011;18325;52.018;4.726;2022-12-07T01:47:06;3.63;;;1.27;;
31754;SDS011;18325;52.018;4.726;2022-12-07T01:49:33;4.67;;;0.57;;
31754;SDS011;18325;52.018;4.726;2022-12-07T01:54:49;4.40;;;0.77;;
31754;SDS011;18325;52.018;4.726;2022-12-07T01:57:17;5.10;;;0.30;;
31754;SDS011;18325;52.018;4.726;2022-12-07T01:59:44;0.57;;;0.50;;
31754;SDS011;18325;52.018;4.726;2022-12-07T02:02:14;0.47;;;0.40;;
31754;SDS011;18325;52.018;4.726;2022-12-07T02:04:45;2.47;;;0.53;;
31754;SDS011;18325;52.018;4.726;2022-12-07T02:07:13;3.17;;;0.53;;
31754;SDS011;18325;52.018;4.726;2022-12-07T02:09:44;2.90;;;0.67;;
31754;SDS011;18325;52.018;4.726;2022-12-07T02:12:10;1.50;;;0.40;;
31754;SDS011;18325;52.018;4.726;2022-12-07T02:14:36;3.27;;;0.77;;
31754;SDS011;18325;52.018;4.726;2022-12-07T02:17:06;5.20;;;0.87;;
31754;SDS011;18325;52.018;4.726;2022-12-07T02:20:06;2.80;;;0.70;;
31754;SDS011;18325;52.018;4.726;2022-12-07T02:23:23;4.80;;;0.50;;
31754;SDS011;18325;52.018;4.726;2022-12-07T02:26:13;0.83;;;0.60;;
31754;SDS011;18325;52.018;4.726;2022-12-07T02:29:05;1.10;;;0.60;;
31754;SDS011;18325;52.018;4.726;2022-12-07T02:31:37;1.30;;;0.60;;
31754;SDS011;18325;52.018;4.726;2022-12-07T02:34:09;2.40;;;0.30;;
31754;SDS011;18325;52.018;4.726;2022-12-07T02:36:39;2.50;;;0.67;;
31754;SDS011;18325;52.018;4.726;2022-12-07T02:39:09;6.23;;;0.90;;
31754;SDS011;18325;52.018;4.726;2022-12-07T02:41:51;2.53;;;0.40;;
31754;SDS011;18325;52.018;4.726;2022-12-07T02:44:21;0.93;;;0.50;;
31754;SDS011;18325;52.018;4.726;2022-12-07T02:46:51;1.20;;;0.40;;
31754;SDS011;18325;52.018;4.726;2022-12-07T02:49:20;2.63;;;0.50;;
31754;SDS011;18325;52.018;4.726;2022-12-07T02:52:00;2.10;;;0.47;;
31754;SDS011;18325;52.018;4.726;2022-12-07T02:54:26;1.60;;;0.80;;
31754;SDS011;18325;52.018;4.726;2022-12-07T02:56:54;2.83;;;0.90;;
31754;SDS011;18325;52.018;4.726;2022-12-07T02:59:28;2.40;;;0.77;;
31754;SDS011;18325;52.018;4.726;2022-12-07T03:02:05;1.70;;;0.70;;
31754;SDS011;18325;52.018;4.726;2022-12-07T03:04:40;1.10;;;0.60;;
31754;SDS011;18325;52.018;4.726;2022-12-07T03:07:30;0.50;;;0.50;;
31754;SDS011;18325;52.018;4.726;2022-12-07T03:10:25;2.77;;;0.43;;
31754;SDS011;18325;52.018;4.726;2022-12-07T03:13:44;4.07;;;0.50;;
31754;SDS011;18325;52.018;4.726;2022-12-07T03:16:15;3.83;;;0.40;;
31754;SDS011;18325;52.018;4.726;2022-12-07T03:19:02;1.60;;;0.67;;
31754;SDS011;18325;52.018;4.726;2022-12-07T03:21:35;2.00;;;0.30;;
31754;SDS011;18325;52.018;4.726;2022-12-07T03:24:10;3.00;;;0.60;;
31754;SDS011;18325;52.018;4.726;2022-12-07T03:26:38;1.53;;;0.40;;
31754;SDS011;18325;52.018;4.726;2022-12-07T03:29:19;3.00;;;0.53;;
31754;SDS011;18325;52.018;4.726;2022-12-07T03:32:10;4.90;;;1.03;;
31754;SDS011;18325;52.018;4.726;2022-12-07T03:34:41;0.93;;;0.53;;
31754;SDS011;18325;52.018;4.726;2022-12-07T03:37:13;1.10;;;0.43;;
31754;SDS011;18325;52.018;4.726;2022-12-07T03:39:44;2.17;;;0.80;;
31754;SDS011;18325;52.018;4.726;2022-12-07T03:42:12;0.90;;;0.33;;
31754;SDS011;18325;52.018;4.726;2022-12-07T03:44:39;2.57;;;0.60;;
31754;SDS011;18325;52.018;4.726;2022-12-07T03:47:11;2.30;;;0.50;;
31754;SDS011;18325;52.018;4.726;2022-12-07T03:49:40;4.20;;;0.40;;
31754;SDS011;18325;52.018;4.726;2022-12-07T03:52:12;3.10;;;0.77;;
31754;SDS011;18325;52.018;4.726;2022-12-07T03:57:44;5.70;;;0.53;;
31754;SDS011;18325;52.018;4.726;2022-12-07T04:00:11;1.13;;;0.57;;
31754;SDS011;18325;52.018;4.726;2022-12-07T04:02:53;6.07;;;0.60;;
31754;SDS011;18325;52.018;4.726;2022-12-07T04:05:56;1.50;;;0.30;;
31754;SDS011;18325;52.018;4.726;2022-12-07T04:08:23;0.90;;;0.50;;
31754;SDS011;18325;52.018;4.726;2022-12-07T04:10:50;1.73;;;0.50;;
31754;SDS011;18325;52.018;4.726;2022-12-07T04:13:17;1.50;;;0.50;;
31754;SDS011;18325;52.018;4.726;2022-12-07T04:15:44;0.93;;;0.30;;
31754;SDS011;18325;52.018;4.726;2022-12-07T04:18:11;3.17;;;0.40;;
31754;SDS011;18325;52.018;4.726;2022-12-07T04:20:38;1.10;;;0.60;;
31754;SDS011;18325;52.018;4.726;2022-12-07T04:23:04;2.93;;;0.43;;
31754;SDS011;18325;52.018;4.726;2022-12-07T04:25:31;5.13;;;0.70;;
31754;SDS011;18325;52.018;4.726;2022-12-07T04:27:58;1.73;;;0.60;;
31754;SDS011;18325;52.018;4.726;2022-12-07T04:30:25;5.10;;;0.63;;
31754;SDS011;18325;52.018;4.726;2022-12-07T04:32:51;2.50;;;0.73;;
31754;SDS011;18325;52.018;4.726;2022-12-07T04:35:19;3.63;;;0.60;;
31754;SDS011;18325;52.018;4.726;2022-12-07T04:37:49;1.20;;;0.43;;
31754;SDS011;18325;52.018;4.726;2022-12-07T04:40:15;2.43;;;0.73;;
31754;SDS011;18325;52.018;4.726;2022-12-07T04:42:42;2.63;;;0.40;;
31754;SDS011;18325;52.018;4.726;2022-12-07T04:45:08;4.60;;;0.90;;
31754;SDS011;18325;52.018;4.726;2022-12-07T04:50:59;1.47;;;0.50;;
31754;SDS011;18325;52.018;4.726;2022-12-07T04:53:26;1.60;;;0.30;;
31754;SDS011;18325;52.018;4.726;2022-12-07T04:55:52;3.90;;;0.60;;
31754;SDS011;18325;52.018;4.726;2022-12-07T04:58:19;4.23;;;0.30;;
31754;SDS011;18325;52.018;4.726;2022-12-07T05:00:45;5.43;;;0.93;;
31754;SDS011;18325;52.018;4.726;2022-12-07T05:03:12;0.93;;;0.57;;
31754;SDS011;18325;52.018;4.726;2022-12-07T05:05:40;1.70;;;0.37;;
31754;SDS011;18325;52.018;4.726;2022-12-07T05:08:21;1.83;;;0.30;;
31754;SDS011;18325;52.018;4.726;2022-12-07T05:10:48;4.17;;;0.50;;
31754;SDS011;18325;52.018;4.726;2022-12-07T05:13:14;2.20;;;0.40;;
31754;SDS011;18325;52.018;4.726;2022-12-07T05:15:41;3.40;;;0.60;;
31754;SDS011;18325;52.018;4.726;2022-12-07T05:18:09;4.47;;;1.13;;
31754;SDS011;18325;52.018;4.726;2022-12-07T05:20:47;1.53;;;0.40;;
31754;SDS011;18325;52.018;4.726;2022-12-07T05:23:14;2.83;;;1.43;;
31754;SDS011;18325;52.018;4.726;2022-12-07T05:25:42;4.53;;;0.70;;
31754;SDS011;18325;52.018;4.726;2022-12-07T05:28:08;2.93;;;0.60;;
31754;SDS011;18325;52.018;4.726;2022-12-07T05:30:35;1.63;;;0.47;;
31754;SDS011;18325;52.018;4.726;2022-12-07T05:33:02;3.53;;;0.80;;
31754;SDS011;18325;52.018;4.726;2022-12-07T05:35:30;1.63;;;1.10;;
31754;SDS011;18325;52.018;4.726;2022-12-07T05:37:56;2.30;;;0.93;;
31754;SDS011;18325;52.018;4.726;2022-12-07T05:40:23;2.13;;;0.90;;
31754;SDS011;18325;52.018;4.726;2022-12-07T05:42:57;1.80;;;0.80;;
31754;SDS011;18325;52.018;4.726;2022-12-07T05:45:23;2.13;;;0.77;;
31754;SDS011;18325;52.018;4.726;2022-12-07T05:47:50;6.23;;;0.93;;
31754;SDS011;18325;52.018;4.726;2022-12-07T05:53:34;3.80;;;1.20;;
31754;SDS011;18325;52.018;4.726;2022-12-07T05:56:01;1.73;;;0.77;;
31754;SDS011;18325;52.018;4.726;2022-12-07T05:58:29;2.47;;;0.97;;
31754;SDS011;18325;52.018;4.726;2022-12-07T06:01:13;1.93;;;0.50;;
31754;SDS011;18325;52.018;4.726;2022-12-07T06:03:39;1.53;;;0.83;;
31754;SDS011;18325;52.018;4.726;2022-12-07T06:06:22;3.60;;;0.80;;
31754;SDS011;18325;52.018;4.726;2022-12-07T06:08:48;4.90;;;1.10;;
31754;SDS011;18325;52.018;4.726;2022-12-07T06:11:15;6.60;;;1.20;;
31754;SDS011;18325;52.018;4.726;2022-12-07T06:14:01;3.23;;;0.93;;
31754;SDS011;18325;52.018;4.726;2022-12-07T06:16:27;21.30;;;8.90;;
31754;SDS011;18325;52.018;4.726;2022-12-07T06:18:54;15.90;;;6.60;;
31754;SDS011;18325;52.018;4.726;2022-12-07T06:24:24;10.57;;;5.43;;
31754;SDS011;18325;52.018;4.726;2022-12-07T06:26:51;7.63;;;3.73;;
31754;SDS011;18325;52.018;4.726;2022-12-07T06:32:09;5.47;;;2.00;;
31754;SDS011;18325;52.018;4.726;2022-12-07T06:34:36;5.33;;;2.23;;
31754;SDS011;18325;52.018;4.726;2022-12-07T06:37:02;2.67;;;1.73;;
31754;SDS011;18325;52.018;4.726;2022-12-07T06:39:29;2.73;;;1.30;;
31754;SDS011;18325;52.018;4.726;2022-12-07T06:41:56;4.80;;;1.70;;
31754;SDS011;18325;52.018;4.726;2022-12-07T06:44:26;4.10;;;1.17;;
31754;SDS011;18325;52.018;4.726;2022-12-07T06:46:54;7.07;;;1.23;;
31754;SDS011;18325;52.018;4.726;2022-12-07T06:49:21;3.00;;;1.37;;
31754;SDS011;18325;52.018;4.726;2022-12-07T06:51:47;3.60;;;1.00;;
31754;SDS011;18325;52.018;4.726;2022-12-07T06:54:14;2.67;;;1.40;;
31754;SDS011;18325;52.018;4.726;2022-12-07T06:56:43;7.67;;;1.30;;
31754;SDS011;18325;52.018;4.726;2022-12-07T06:59:09;7.07;;;1.57;;
31754;SDS011;18325;52.018;4.726;2022-12-07T07:01:36;3.63;;;0.90;;
31754;SDS011;18325;52.018;4.726;2022-12-07T07:04:04;11.93;;;3.27;;
31754;SDS011;18325;52.018;4.726;2022-12-07T07:06:30;8.50;;;3.27;;
31754;SDS011;18325;52.018;4.726;2022-12-07T07:08:57;8.63;;;4.07;;
31754;SDS011;18325;52.018;4.726;2022-12-07T07:11:24;3.77;;;1.60;;
31754;SDS011;18325;52.018;4.726;2022-12-07T07:13:50;5.50;;;1.70;;
31754;SDS011;18325;52.018;4.726;2022-12-07T07:16:17;5.33;;;1.40;;
31754;SDS011;18325;52.018;4.726;2022-12-07T07:18:43;3.93;;;0.83;;
31754;SDS011;18325;52.018;4.726;2022-12-07T07:21:11;4.47;;;1.33;;
31754;SDS011;18325;52.018;4.726;2022-12-07T07:23:37;2.73;;;1.23;;
31754;SDS011;18325;52.018;4.726;2022-12-07T07:26:04;3.23;;;1.27;;
31754;SDS011;18325;52.018;4.726;2022-12-07T07:31:36;6.57;;;1.30;;
31754;SDS011;18325;52.018;4.726;2022-12-07T07:34:10;4.50;;;1.37;;
31754;SDS011;18325;52.018;4.726;2022-12-07T07:36:38;3.97;;;1.57;;
31754;SDS011;18325;52.018;4.726;2022-12-07T07:39:04;11.40;;;1.43;;
31754;SDS011;18325;52.018;4.726;2022-12-07T07:41:32;1.77;;;1.23;;
31754;SDS011;18325;52.018;4.726;2022-12-07T07:53:21;3.00;;;1.17;;
31754;SDS011;18325;52.018;4.726;2022-12-07T07:55:51;3.77;;;1.00;;
31754;SDS011;18325;52.018;4.726;2022-12-07T07:58:20;7.33;;;1.87;;
31754;SDS011;18325;52.018;4.726;2022-12-07T08:01:05;3.20;;;1.47;;
31754;SDS011;18325;52.018;4.726;2022-12-07T08:03:32;4.80;;;1.17;;
31754;SDS011;18325;52.018;4.726;2022-12-07T08:06:02;2.93;;;1.30;;
31754;SDS011;18325;52.018;4.726;2022-12-07T08:08:44;4.20;;;1.60;;
31754;SDS011;18325;52.018;4.726;2022-12-07T08:14:10;4.27;;;1.40;;
31754;SDS011;18325;52.018;4.726;2022-12-07T08:16:37;7.27;;;1.70;;
31754;SDS011;18325;52.018;4.726;2022-12-07T08:19:04;6.63;;;1.77;;
31754;SDS011;18325;52.018;4.726;2022-12-07T08:21:30;1.43;;;1.07;;
31754;SDS011;18325;52.018;4.726;2022-12-07T08:26:46;5.83;;;1.50;;
31754;SDS011;18325;52.018;4.726;2022-12-07T08:29:13;2.27;;;1.20;;
31754;SDS011;18325;52.018;4.726;2022-12-07T08:31:40;5.17;;;1.73;;
31754;SDS011;18325;52.018;4.726;2022-12-07T08:34:06;5.03;;;1.70;;
31754;SDS011;18325;52.018;4.726;2022-12-07T08:36:35;2.40;;;1.70;;
31754;SDS011;18325;52.018;4.726;2022-12-07T08:39:03;3.53;;;1.70;;
31754;SDS011;18325;52.018;4.726;2022-12-07T08:41:32;1.57;;;1.10;;
31754;SDS011;18325;52.018;4.726;2022-12-07T08:47:29;2.67;;;0.90;;
31754;SDS011;18325;52.018;4.726;2022-12-07T08:49:59;1.37;;;0.93;;
31754;SDS011;18325;52.018;4.726;2022-12-07T09:32:07;2.93;;;1.00;;
31754;SDS011;18325;52.018;4.726;2022-12-07T09:34:33;1.30;;;0.83;;
31754;SDS011;18325;52.018;4.726;2022-12-07T09:37:00;3.90;;;0.63;;
31754;SDS011;18325;52.018;4.726;2022-12-07T09:39:34;4.50;;;1.27;;
31754;SDS011;18325;52.018;4.726;2022-12-07T09:42:11;0.40;;;0.30;;
31754;SDS011;18325;52.018;4.726;2022-12-07T09:45:15;1.47;;;0.73;;
31754;SDS011;18325;52.018;4.726;2022-12-07T09:50:39;3.50;;;1.77;;
31754;SDS011;18325;52.018;4.726;2022-12-07T09:53:07;3.17;;;1.47;;
31754;SDS011;18325;52.018;4.726;2022-12-07T10:00:57;1.13;;;0.83;;
31754;SDS011;18325;52.018;4.726;2022-12-07T10:06:07;4.90;;;1.00;;
31754;SDS011;18325;52.018;4.726;2022-12-07T10:08:33;4.60;;;1.43;;
31754;SDS011;18325;52.018;4.726;2022-12-07T10:11:01;7.37;;;1.47;;
31754;SDS011;18325;52.018;4.726;2022-12-07T10:13:34;1.23;;;0.90;;
31754;SDS011;18325;52.018;4.726;2022-12-07T10:16:01;4.17;;;1.47;;
31754;SDS011;18325;52.018;4.726;2022-12-07T10:42:15;1.60;;;1.17;;
31754;SDS011;18325;52.018;4.726;2022-12-07T10:47:47;2.73;;;1.53;;
31754;SDS011;18325;52.018;4.726;2022-12-07T10:50:23;3.27;;;1.87;;
31754;SDS011;18325;52.018;4.726;2022-12-07T10:56:27;1.30;;;0.80;;
31754;SDS011;18325;52.018;4.726;2022-12-07T11:02:49;3.23;;;1.60;;
31754;SDS011;18325;52.018;4.726;2022-12-07T11:08:40;2.03;;;1.10;;
31754;SDS011;18325;52.018;4.726;2022-12-07T11:17:13;1.90;;;1.23;;
31754;SDS011;18325;52.018;4.726;2022-12-07T17:25:37;5.57;;;3.73;;
31754;SDS011;18325;52.018;4.726;2022-12-07T17:28:05;5.43;;;4.13;;
31754;SDS011;18325;52.018;4.726;2022-12-07T17:30:31;5.17;;;3.23;;
31754;SDS011;18325;52.018;4.726;2022-12-07T17:32:58;7.40;;;3.10;;
31754;SDS011;18325;52.018;4.726;2022-12-07T17:45:06;1.50;;;1.07;;
31754;SDS011;18325;52.018;4.726;2022-12-07T17:47:36;3.67;;;1.50;;
31754;SDS011;18325;52.018;4.726;2022-12-07T17:50:03;4.13;;;1.40;;
31754;SDS011;18325;52.018;4.726;2022-12-07T17:52:30;3.57;;;1.40;;
31754;SDS011;18325;52.018;4.726;2022-12-07T17:58:52;6.13;;;1.30;;
31754;SDS011;18325;52.018;4.726;2022-12-07T18:10:01;1.23;;;0.57;;
31754;SDS011;18325;52.018;4.726;2022-12-07T18:12:33;8.23;;;1.40;;
31754;SDS011;18325;52.018;4.726;2022-12-07T18:14:59;3.40;;;1.60;;
31754;SDS011;18325;52.018;4.726;2022-12-07T18:17:27;14.03;;;7.23;;
31754;SDS011;18325;52.018;4.726;2022-12-07T18:19:54;28.67;;;11.70;;
31754;SDS011;18325;52.018;4.726;2022-12-07T18:22:20;14.23;;;6.70;;
31754;SDS011;18325;52.018;4.726;2022-12-07T18:24:47;14.00;;;5.20;;
31754;SDS011;18325;52.018;4.726;2022-12-07T18:30:05;4.90;;;2.73;;
31754;SDS011;18325;52.018;4.726;2022-12-07T18:32:34;5.43;;;2.90;;
31754;SDS011;18325;52.018;4.726;2022-12-07T18:37:36;8.70;;;5.47;;
31754;SDS011;18325;52.018;4.726;2022-12-07T18:40:03;12.80;;;4.27;;
31754;SDS011;18325;52.018;4.726;2022-12-07T18:42:32;3.80;;;2.87;;
31754;SDS011;18325;52.018;4.726;2022-12-07T18:44:58;3.37;;;1.97;;
31754;SDS011;18325;52.018;4.726;2022-12-07T18:47:25;2.93;;;1.53;;
31754;SDS011;18325;52.018;4.726;2022-12-07T18:49:53;3.10;;;1.20;;
31754;SDS011;18325;52.018;4.726;2022-12-07T18:52:20;2.73;;;1.60;;
31754;SDS011;18325;52.018;4.726;2022-12-07T18:54:46;2.37;;;1.60;;
31754;SDS011;18325;52.018;4.726;2022-12-07T18:57:27;1.63;;;1.27;;
31754;SDS011;18325;52.018;4.726;2022-12-07T18:59:53;7.27;;;3.67;;
31754;SDS011;18325;52.018;4.726;2022-12-07T19:02:20;7.97;;;4.03;;
31754;SDS011;18325;52.018;4.726;2022-12-07T19:04:46;23.00;;;8.80;;
31754;SDS011;18325;52.018;4.726;2022-12-07T19:07:14;13.90;;;6.30;;
31754;SDS011;18325;52.018;4.726;2022-12-07T19:09:41;8.70;;;3.97;;
31754;SDS011;18325;52.018;4.726;2022-12-07T19:12:09;12.87;;;5.37;;
31754;SDS011;18325;52.018;4.726;2022-12-07T19:14:37;6.27;;;2.90;;
31754;SDS011;18325;52.018;4.726;2022-12-07T19:17:11;3.87;;;2.67;;
31754;SDS011;18325;52.018;4.726;2022-12-07T19:19:39;3.73;;;2.07;;
31754;SDS011;18325;52.018;4.726;2022-12-07T19:22:07;4.63;;;2.03;;
31754;SDS011;18325;52.018;4.726;2022-12-07T19:24:36;2.63;;;1.80;;
31754;SDS011;18325;52.018;4.726;2022-12-07T19:27:03;7.63;;;2.13;;
31754;SDS011;18325;52.018;4.726;2022-12-07T19:29:30;4.83;;;2.10;;
31754;SDS011;18325;52.018;4.726;2022-12-07T19:31:57;4.70;;;2.10;;
31754;SDS011;18325;52.018;4.726;2022-12-07T19:34:24;2.27;;;1.63;;
31754;SDS011;18325;52.018;4.726;2022-12-07T19:40:10;2.10;;;1.83;;
31754;SDS011;18325;52.018;4.726;2022-12-07T19:42:37;2.40;;;1.73;;
31754;SDS011;18325;52.018;4.726;2022-12-07T19:51:33;7.10;;;3.77;;
31754;SDS011;18325;52.018;4.726;2022-12-07T20:10:15;10.77;;;4.93;;
31754;SDS011;18325;52.018;4.726;2022-12-07T20:12:42;4.87;;;2.80;;
31754;SDS011;18325;52.018;4.726;2022-12-07T20:15:26;3.73;;;2.27;;
31754;SDS011;18325;52.018;4.726;2022-12-07T20:29:38;3.83;;;1.40;;
31754;SDS011;18325;52.018;4.726;2022-12-07T20:32:05;5.07;;;2.60;;
31754;SDS011;18325;52.018;4.726;2022-12-07T20:37:53;2.37;;;1.87;;
31754;SDS011;18325;52.018;4.726;2022-12-07T20:40:21;2.90;;;1.70;;
31754;SDS011;18325;52.018;4.726;2022-12-07T20:46:11;14.97;;;5.77;;
31754;SDS011;18325;52.018;4.726;2022-12-07T20:54:40;6.47;;;3.10;;
31754;SDS011;18325;52.018;4.726;2022-12-07T21:03:23;3.87;;;1.73;;
31754;SDS011;18325;52.018;4.726;2022-12-07T21:22:57;5.23;;;1.80;;
31754;SDS011;18325;52.018;4.726;2022-12-07T21:25:24;4.40;;;1.67;;
31754;SDS011;18325;52.018;4.726;2022-12-07T21:33:47;3.33;;;1.47;;
31754;SDS011;18325;52.018;4.726;2022-12-07T21:36:23;2.23;;;1.20;;
31754;SDS011;18325;52.018;4.726;2022-12-07T21:39:10;2.93;;;1.07;;
31754;SDS011;18325;52.018;4.726;2022-12-07T21:41:36;2.33;;;1.13;;
31754;SDS011;18325;52.018;4.726;2022-12-07T21:44:04;2.47;;;1.27;;
31754;SDS011;18325;52.018;4.726;2022-12-07T21:49:57;3.10;;;1.20;;
31754;SDS011;18325;52.018;4.726;2022-12-07T21:52:24;1.90;;;1.47;;
31754;SDS011;18325;52.018;4.726;2022-12-07T22:01:16;2.70;;;1.33;;
31754;SDS011;18325;52.018;4.726;2022-12-07T22:03:44;7.00;;;1.73;;
31754;SDS011;18325;52.018;4.726;2022-12-07T22:06:11;1.47;;;1.17;;
31754;SDS011;18325;52.018;4.726;2022-12-07T22:08:39;1.63;;;1.17;;
31754;SDS011;18325;52.018;4.726;2022-12-07T22:11:07;1.53;;;1.00;;
31754;SDS011;18325;52.018;4.726;2022-12-07T22:13:35;3.90;;;1.13;;
31754;SDS011;18325;52.018;4.726;2022-12-07T22:31:52;1.90;;;1.17;;
31754;SDS011;18325;52.018;4.726;2022-12-07T22:34:19;1.17;;;0.80;;
31754;SDS011;18325;52.018;4.726;2022-12-07T22:37:01;1.83;;;0.90;;
31754;SDS011;18325;52.018;4.726;2022-12-07T22:39:27;1.33;;;0.83;;
31754;SDS011;18325;52.018;4.726;2022-12-07T23:12:00;0.67;;;0.60;;
31754;SDS011;18325;52.018;4.726;2022-12-07T23:17:46;1.47;;;0.60;;
31754;SDS011;18325;52.018;4.726;2022-12-07T23:20:16;0.97;;;0.87;;
31754;SDS011;18325;52.018;4.726;2022-12-07T23:22:43;1.43;;;0.60;;
31754;SDS011;18325;52.018;4.726;2022-12-07T23:25:10;1.33;;;0.80;;
31754;SDS011;18325;52.018;4.726;2022-12-07T23:27:38;0.47;;;0.47;;
31754;SDS011;18325;52.018;4.726;2022-12-07T23:30:05;2.70;;;0.47;;
31754;SDS011;18325;52.018;4.726;2022-12-07T23:32:32;1.50;;;0.80;;
31754;SDS011;18325;52.018;4.726;2022-12-07T23:34:59;1.60;;;0.40;;
31754;SDS011;18325;52.018;4.726;2022-12-07T23:37:26;0.97;;;0.40;;
31754;SDS011;18325;52.018;4.726;2022-12-07T23:39:52;0.97;;;0.40;;
31754;SDS011;18325;52.018;4.726;2022-12-07T23:42:19;0.40;;;0.30;;
31754;SDS011;18325;52.018;4.726;2022-12-07T23:44:50;0.33;;;0.33;;
31754;SDS011;18325;52.018;4.726;2022-12-07T23:47:23;1.70;;;0.50;;
31754;SDS011;18325;52.018;4.726;2022-12-07T23:49:53;0.73;;;0.40;;
31754;SDS011;18325;52.018;4.726;2022-12-07T23:52:20;2.03;;;0.30;;
31754;SDS011;18325;52.018;4.726;2022-12-07T23:54:46;0.80;;;0.50;;
31754;SDS011;18325;52.018;4.726;2022-12-07T23:57:12;0.30;;;0.30;;
